sensor_id;sensor_type;location;lat;lon;timestamp;temperature;humidity
22173;DHT22;11252;50.596;17.648;2023-08-07T00:02:10;14.60;92.20
22173;DHT22;11252;50.596;17.648;2023-08-07T00:04:36;14.60;92.20
22173;DHT22;11252;50.596;17.648;2023-08-07T00:07:04;14.50;92.20
22173;DHT22;11252;50.596;17.648;2023-08-07T00:09:31;14.50;92.20
22173;DHT22;11252;50.596;17.648;2023-08-07T00:11:57;14.50;92.20
22173;DHT22;11252;50.596;17.648;2023-08-07T00:14:25;14.50;92.20
22173;DHT22;11252;50.596;17.648;2023-08-07T00:16:52;14.50;92.20
22173;DHT22;11252;50.596;17.648;2023-08-07T00:19:19;14.50;92.20
22173;DHT22;11252;50.596;17.648;2023-08-07T00:21:45;14.50;92.20
22173;DHT22;11252;50.596;17.648;2023-08-07T00:24:12;14.50;92.20
22173;DHT22;11252;50.596;17.648;2023-08-07T00:26:39;14.50;92.20
22173;DHT22;11252;50.596;17.648;2023-08-07T00:29:06;14.50;92.20
22173;DHT22;11252;50.596;17.648;2023-08-07T00:31:33;14.50;92.20
22173;DHT22;11252;50.596;17.648;2023-08-07T00:34:00;14.60;92.20
22173;DHT22;11252;50.596;17.648;2023-08-07T00:36:28;14.60;92.20
22173;DHT22;11252;50.596;17.648;2023-08-07T00:38:55;14.60;92.20
22173;DHT22;11252;50.596;17.648;2023-08-07T00:41:22;14.60;92.20
22173;DHT22;11252;50.596;17.648;2023-08-07T00:43:50;14.60;92.20
22173;DHT22;11252;50.596;17.648;2023-08-07T00:46:17;14.70;92.20
22173;DHT22;11252;50.596;17.648;2023-08-07T00:48:45;14.70;92.20
22173;DHT22;11252;50.596;17.648;2023-08-07T00:51:12;14.70;92.20
22173;DHT22;11252;50.596;17.648;2023-08-07T00:53:39;14.80;92.20
22173;DHT22;11252;50.596;17.648;2023-08-07T00:56:06;14.80;92.20
22173;DHT22;11252;50.596;17.648;2023-08-07T00:58:34;14.80;92.20
22173;DHT22;11252;50.596;17.648;2023-08-07T01:01:01;14.70;92.20
22173;DHT22;11252;50.596;17.648;2023-08-07T01:03:28;14.80;92.20
22173;DHT22;11252;50.596;17.648;2023-08-07T01:05:56;14.70;92.20
22173;DHT22;11252;50.596;17.648;2023-08-07T01:08:25;14.70;92.20
22173;DHT22;11252;50.596;17.648;2023-08-07T01:14:08;14.70;92.20
22173;DHT22;11252;50.596;17.648;2023-08-07T01:16:45;14.70;92.20
22173;DHT22;11252;50.596;17.648;2023-08-07T01:19:25;14.70;92.20
22173;DHT22;11252;50.596;17.648;2023-08-07T01:22:12;14.70;92.20
22173;DHT22;11252;50.596;17.648;2023-08-07T01:24:50;14.70;92.20
22173;DHT22;11252;50.596;17.648;2023-08-07T01:30:02;14.60;92.20
22173;DHT22;11252;50.596;17.648;2023-08-07T01:35:03;14.50;92.20
22173;DHT22;11252;50.596;17.648;2023-08-07T01:37:35;14.50;92.20
22173;DHT22;11252;50.596;17.648;2023-08-07T01:40:03;14.50;92.20
22173;DHT22;11252;50.596;17.648;2023-08-07T01:42:32;14.40;92.20
22173;DHT22;11252;50.596;17.648;2023-08-07T01:44:59;14.40;92.20
22173;DHT22;11252;50.596;17.648;2023-08-07T01:47:26;14.40;92.20
22173;DHT22;11252;50.596;17.648;2023-08-07T01:49:53;14.30;92.20
22173;DHT22;11252;50.596;17.648;2023-08-07T01:52:20;14.30;92.20
22173;DHT22;11252;50.596;17.648;2023-08-07T01:54:47;14.20;92.20
22173;DHT22;11252;50.596;17.648;2023-08-07T01:57:15;14.20;92.20
22173;DHT22;11252;50.596;17.648;2023-08-07T01:59:41;14.20;92.20
22173;DHT22;11252;50.596;17.648;2023-08-07T02:02:10;14.10;92.20
22173;DHT22;11252;50.596;17.648;2023-08-07T02:04:37;14.10;92.20
22173;DHT22;11252;50.596;17.648;2023-08-07T02:07:04;14.10;92.20
22173;DHT22;11252;50.596;17.648;2023-08-07T02:09:31;14.10;92.20
22173;DHT22;11252;50.596;17.648;2023-08-07T02:11:58;14.10;92.20
22173;DHT22;11252;50.596;17.648;2023-08-07T02:14:25;14.00;92.20
22173;DHT22;11252;50.596;17.648;2023-08-07T02:16:52;14.00;92.20
22173;DHT22;11252;50.596;17.648;2023-08-07T02:19:20;14.00;92.20
22173;DHT22;11252;50.596;17.648;2023-08-07T02:21:46;14.00;92.20
22173;DHT22;11252;50.596;17.648;2023-08-07T02:24:13;14.00;92.20
22173;DHT22;11252;50.596;17.648;2023-08-07T02:26:40;14.00;92.20
22173;DHT22;11252;50.596;17.648;2023-08-07T02:29:07;14.00;92.20
22173;DHT22;11252;50.596;17.648;2023-08-07T02:31:36;14.00;92.20
22173;DHT22;11252;50.596;17.648;2023-08-07T02:34:02;14.00;92.20
22173;DHT22;11252;50.596;17.648;2023-08-07T02:36:29;14.00;92.20
22173;DHT22;11252;50.596;17.648;2023-08-07T02:38:56;14.00;92.20
22173;DHT22;11252;50.596;17.648;2023-08-07T02:41:23;14.00;92.20
22173;DHT22;11252;50.596;17.648;2023-08-07T02:43:50;14.00;92.20
22173;DHT22;11252;50.596;17.648;2023-08-07T02:46:17;14.00;92.20
22173;DHT22;11252;50.596;17.648;2023-08-07T02:48:44;14.00;92.20
22173;DHT22;11252;50.596;17.648;2023-08-07T02:51:11;14.00;92.20
22173;DHT22;11252;50.596;17.648;2023-08-07T02:53:38;14.10;92.20
22173;DHT22;11252;50.596;17.648;2023-08-07T02:56:05;14.00;92.20
22173;DHT22;11252;50.596;17.648;2023-08-07T02:58:32;14.00;92.20
22173;DHT22;11252;50.596;17.648;2023-08-07T03:01:06;14.00;92.20
22173;DHT22;11252;50.596;17.648;2023-08-07T03:03:33;14.10;92.20
22173;DHT22;11252;50.596;17.648;2023-08-07T03:06:00;14.00;92.20
22173;DHT22;11252;50.596;17.648;2023-08-07T03:08:27;14.10;92.20
22173;DHT22;11252;50.596;17.648;2023-08-07T03:10:55;14.10;92.20
22173;DHT22;11252;50.596;17.648;2023-08-07T03:13:26;14.10;92.20
22173;DHT22;11252;50.596;17.648;2023-08-07T03:16:04;14.10;92.20
22173;DHT22;11252;50.596;17.648;2023-08-07T03:18:32;14.10;92.20
22173;DHT22;11252;50.596;17.648;2023-08-07T03:20:59;14.10;92.20
22173;DHT22;11252;50.596;17.648;2023-08-07T03:23:27;14.10;92.20
22173;DHT22;11252;50.596;17.648;2023-08-07T03:26:06;14.10;92.20
22173;DHT22;11252;50.596;17.648;2023-08-07T03:28:36;14.10;92.20
22173;DHT22;11252;50.596;17.648;2023-08-07T03:31:04;14.20;92.20
22173;DHT22;11252;50.596;17.648;2023-08-07T03:33:31;14.20;92.20
22173;DHT22;11252;50.596;17.648;2023-08-07T03:35:58;14.20;92.20
22173;DHT22;11252;50.596;17.648;2023-08-07T03:38:25;14.20;92.20
22173;DHT22;11252;50.596;17.648;2023-08-07T03:40:52;14.20;92.20
22173;DHT22;11252;50.596;17.648;2023-08-07T03:43:19;14.30;92.20
22173;DHT22;11252;50.596;17.648;2023-08-07T03:45:47;14.30;92.20
22173;DHT22;11252;50.596;17.648;2023-08-07T03:48:14;14.30;92.20
22173;DHT22;11252;50.596;17.648;2023-08-07T03:50:41;14.30;92.20
22173;DHT22;11252;50.596;17.648;2023-08-07T03:53:08;14.30;92.20
22173;DHT22;11252;50.596;17.648;2023-08-07T03:55:35;14.30;92.20
22173;DHT22;11252;50.596;17.648;2023-08-07T03:58:02;14.40;92.20
22173;DHT22;11252;50.596;17.648;2023-08-07T04:00:29;14.40;92.20
22173;DHT22;11252;50.596;17.648;2023-08-07T04:02:56;14.40;92.20
22173;DHT22;11252;50.596;17.648;2023-08-07T04:05:23;14.40;92.20
22173;DHT22;11252;50.596;17.648;2023-08-07T04:07:51;14.40;92.20
22173;DHT22;11252;50.596;17.648;2023-08-07T04:10:17;14.40;92.20
22173;DHT22;11252;50.596;17.648;2023-08-07T04:12:45;14.50;92.20
22173;DHT22;11252;50.596;17.648;2023-08-07T04:15:12;14.50;92.20
22173;DHT22;11252;50.596;17.648;2023-08-07T04:17:39;14.50;92.20
22173;DHT22;11252;50.596;17.648;2023-08-07T04:20:06;14.50;92.20
22173;DHT22;11252;50.596;17.648;2023-08-07T04:22:34;14.50;92.20
22173;DHT22;11252;50.596;17.648;2023-08-07T04:25:01;14.50;92.20
22173;DHT22;11252;50.596;17.648;2023-08-07T04:27:28;14.50;92.20
22173;DHT22;11252;50.596;17.648;2023-08-07T04:29:55;14.60;92.20
22173;DHT22;11252;50.596;17.648;2023-08-07T04:32:22;14.60;92.20
22173;DHT22;11252;50.596;17.648;2023-08-07T04:34:52;14.60;92.20
22173;DHT22;11252;50.596;17.648;2023-08-07T04:37:19;14.60;92.20
22173;DHT22;11252;50.596;17.648;2023-08-07T04:39:46;14.60;92.20
22173;DHT22;11252;50.596;17.648;2023-08-07T04:42:13;14.60;92.20
22173;DHT22;11252;50.596;17.648;2023-08-07T04:44:40;14.60;92.20
22173;DHT22;11252;50.596;17.648;2023-08-07T04:47:07;14.60;92.20
22173;DHT22;11252;50.596;17.648;2023-08-07T04:49:34;14.60;92.20
22173;DHT22;11252;50.596;17.648;2023-08-07T04:52:00;14.70;92.20
22173;DHT22;11252;50.596;17.648;2023-08-07T04:54:46;14.70;92.20
22173;DHT22;11252;50.596;17.648;2023-08-07T04:57:14;14.60;92.20
22173;DHT22;11252;50.596;17.648;2023-08-07T04:59:41;14.70;92.20
22173;DHT22;11252;50.596;17.648;2023-08-07T05:02:08;14.70;92.20
22173;DHT22;11252;50.596;17.648;2023-08-07T05:04:35;14.70;92.20
22173;DHT22;11252;50.596;17.648;2023-08-07T05:07:02;14.70;92.20
22173;DHT22;11252;50.596;17.648;2023-08-07T05:09:30;14.70;92.20
22173;DHT22;11252;50.596;17.648;2023-08-07T05:11:59;14.70;92.20
22173;DHT22;11252;50.596;17.648;2023-08-07T05:14:26;14.70;92.20
22173;DHT22;11252;50.596;17.648;2023-08-07T05:16:53;14.80;92.20
22173;DHT22;11252;50.596;17.648;2023-08-07T05:19:20;14.80;92.20
22173;DHT22;11252;50.596;17.648;2023-08-07T05:21:48;14.80;92.20
22173;DHT22;11252;50.596;17.648;2023-08-07T05:24:17;14.90;92.20
22173;DHT22;11252;50.596;17.648;2023-08-07T05:26:45;14.90;92.20
22173;DHT22;11252;50.596;17.648;2023-08-07T05:29:12;14.90;92.20
22173;DHT22;11252;50.596;17.648;2023-08-07T05:31:39;15.00;92.20
22173;DHT22;11252;50.596;17.648;2023-08-07T05:34:06;15.00;92.20
22173;DHT22;11252;50.596;17.648;2023-08-07T05:36:33;15.00;92.20
22173;DHT22;11252;50.596;17.648;2023-08-07T05:39:00;15.10;92.20
22173;DHT22;11252;50.596;17.648;2023-08-07T05:41:27;15.10;92.20
22173;DHT22;11252;50.596;17.648;2023-08-07T05:43:54;15.10;92.20
22173;DHT22;11252;50.596;17.648;2023-08-07T05:46:21;15.10;92.20
22173;DHT22;11252;50.596;17.648;2023-08-07T05:48:48;15.00;92.20
22173;DHT22;11252;50.596;17.648;2023-08-07T05:51:15;15.00;92.20
22173;DHT22;11252;50.596;17.648;2023-08-07T05:53:42;15.00;92.20
22173;DHT22;11252;50.596;17.648;2023-08-07T05:56:09;15.00;92.20
22173;DHT22;11252;50.596;17.648;2023-08-07T05:58:36;15.00;92.20
22173;DHT22;11252;50.596;17.648;2023-08-07T06:01:03;15.00;92.20
22173;DHT22;11252;50.596;17.648;2023-08-07T06:03:29;15.00;92.20
22173;DHT22;11252;50.596;17.648;2023-08-07T06:05:56;15.00;92.20
22173;DHT22;11252;50.596;17.648;2023-08-07T06:08:23;15.00;92.20
22173;DHT22;11252;50.596;17.648;2023-08-07T06:10:52;15.00;92.20
22173;DHT22;11252;50.596;17.648;2023-08-07T06:13:19;15.00;92.20
22173;DHT22;11252;50.596;17.648;2023-08-07T06:16:01;15.00;92.20
22173;DHT22;11252;50.596;17.648;2023-08-07T06:18:28;15.00;92.20
22173;DHT22;11252;50.596;17.648;2023-08-07T06:20:56;15.00;92.20
22173;DHT22;11252;50.596;17.648;2023-08-07T06:23:23;15.00;92.20
22173;DHT22;11252;50.596;17.648;2023-08-07T06:25:50;15.00;92.20
22173;DHT22;11252;50.596;17.648;2023-08-07T06:28:23;15.00;92.20
22173;DHT22;11252;50.596;17.648;2023-08-07T06:30:50;15.00;92.20
22173;DHT22;11252;50.596;17.648;2023-08-07T06:33:17;15.00;92.20
22173;DHT22;11252;50.596;17.648;2023-08-07T06:35:44;15.10;92.20
22173;DHT22;11252;50.596;17.648;2023-08-07T06:38:13;15.10;92.20
22173;DHT22;11252;50.596;17.648;2023-08-07T06:40:40;15.10;92.20
22173;DHT22;11252;50.596;17.648;2023-08-07T06:43:07;15.10;92.20
22173;DHT22;11252;50.596;17.648;2023-08-07T06:45:34;15.20;92.20
22173;DHT22;11252;50.596;17.648;2023-08-07T06:48:01;15.20;92.20
22173;DHT22;11252;50.596;17.648;2023-08-07T06:50:28;15.10;92.20
22173;DHT22;11252;50.596;17.648;2023-08-07T06:52:55;15.10;92.20
22173;DHT22;11252;50.596;17.648;2023-08-07T06:55:22;15.20;92.20
22173;DHT22;11252;50.596;17.648;2023-08-07T06:57:49;15.10;92.20
22173;DHT22;11252;50.596;17.648;2023-08-07T07:00:16;15.10;92.20
22173;DHT22;11252;50.596;17.648;2023-08-07T07:02:43;15.00;92.20
22173;DHT22;11252;50.596;17.648;2023-08-07T07:05:10;15.00;92.20
22173;DHT22;11252;50.596;17.648;2023-08-07T07:07:37;15.00;92.20
22173;DHT22;11252;50.596;17.648;2023-08-07T07:10:05;15.00;92.20
22173;DHT22;11252;50.596;17.648;2023-08-07T07:12:32;15.00;92.20
22173;DHT22;11252;50.596;17.648;2023-08-07T07:14:59;15.00;92.20
22173;DHT22;11252;50.596;17.648;2023-08-07T07:17:26;15.00;92.20
22173;DHT22;11252;50.596;17.648;2023-08-07T07:19:54;14.90;92.20
22173;DHT22;11252;50.596;17.648;2023-08-07T07:22:21;14.90;92.20
22173;DHT22;11252;50.596;17.648;2023-08-07T07:24:48;15.00;92.20
22173;DHT22;11252;50.596;17.648;2023-08-07T07:27:15;15.00;92.20
22173;DHT22;11252;50.596;17.648;2023-08-07T07:29:42;15.00;92.20
22173;DHT22;11252;50.596;17.648;2023-08-07T07:32:09;15.10;92.20
22173;DHT22;11252;50.596;17.648;2023-08-07T07:34:36;15.00;92.20
22173;DHT22;11252;50.596;17.648;2023-08-07T07:37:03;15.00;92.20
22173;DHT22;11252;50.596;17.648;2023-08-07T07:39:30;15.00;92.20
22173;DHT22;11252;50.596;17.648;2023-08-07T07:41:57;15.00;92.20
22173;DHT22;11252;50.596;17.648;2023-08-07T07:44:24;14.90;92.20
22173;DHT22;11252;50.596;17.648;2023-08-07T07:46:54;14.80;92.20
22173;DHT22;11252;50.596;17.648;2023-08-07T07:49:21;14.70;92.20
22173;DHT22;11252;50.596;17.648;2023-08-07T07:51:48;14.50;92.20
22173;DHT22;11252;50.596;17.648;2023-08-07T07:54:16;14.40;92.20
22173;DHT22;11252;50.596;17.648;2023-08-07T07:56:43;14.40;92.20
22173;DHT22;11252;50.596;17.648;2023-08-07T07:59:11;14.30;92.20
22173;DHT22;11252;50.596;17.648;2023-08-07T08:01:38;14.30;92.20
22173;DHT22;11252;50.596;17.648;2023-08-07T08:04:05;14.30;92.20
22173;DHT22;11252;50.596;17.648;2023-08-07T08:06:33;14.30;92.20
22173;DHT22;11252;50.596;17.648;2023-08-07T08:09:00;14.30;92.20
22173;DHT22;11252;50.596;17.648;2023-08-07T08:11:31;14.30;92.20
22173;DHT22;11252;50.596;17.648;2023-08-07T08:13:58;14.40;92.20
22173;DHT22;11252;50.596;17.648;2023-08-07T08:16:25;14.40;92.20
22173;DHT22;11252;50.596;17.648;2023-08-07T08:18:52;14.40;92.20
22173;DHT22;11252;50.596;17.648;2023-08-07T08:21:19;14.50;92.20
22173;DHT22;11252;50.596;17.648;2023-08-07T08:23:45;14.50;92.20
22173;DHT22;11252;50.596;17.648;2023-08-07T08:26:12;14.60;92.20
22173;DHT22;11252;50.596;17.648;2023-08-07T08:28:39;14.70;92.20
22173;DHT22;11252;50.596;17.648;2023-08-07T08:31:06;14.70;92.20
22173;DHT22;11252;50.596;17.648;2023-08-07T08:33:33;14.80;92.20
22173;DHT22;11252;50.596;17.648;2023-08-07T08:36:00;14.90;92.20
22173;DHT22;11252;50.596;17.648;2023-08-07T08:38:27;15.00;92.20
22173;DHT22;11252;50.596;17.648;2023-08-07T08:41:02;15.20;92.20
22173;DHT22;11252;50.596;17.648;2023-08-07T08:43:34;15.30;92.20
22173;DHT22;11252;50.596;17.648;2023-08-07T08:46:04;15.30;92.20
22173;DHT22;11252;50.596;17.648;2023-08-07T08:48:35;15.40;92.20
22173;DHT22;11252;50.596;17.648;2023-08-07T08:51:05;15.40;92.20
22173;DHT22;11252;50.596;17.648;2023-08-07T08:53:33;15.50;92.20
22173;DHT22;11252;50.596;17.648;2023-08-07T08:56:01;15.50;92.20
22173;DHT22;11252;50.596;17.648;2023-08-07T08:58:29;15.50;92.20
22173;DHT22;11252;50.596;17.648;2023-08-07T09:00:56;15.50;92.20
22173;DHT22;11252;50.596;17.648;2023-08-07T09:03:24;15.50;92.20
22173;DHT22;11252;50.596;17.648;2023-08-07T09:05:53;15.50;92.20
22173;DHT22;11252;50.596;17.648;2023-08-07T09:08:22;15.40;92.20
22173;DHT22;11252;50.596;17.648;2023-08-07T09:10:52;15.40;92.20
22173;DHT22;11252;50.596;17.648;2023-08-07T09:13:22;15.50;92.20
22173;DHT22;11252;50.596;17.648;2023-08-07T09:15:51;15.50;92.20
22173;DHT22;11252;50.596;17.648;2023-08-07T09:18:18;15.60;92.20
22173;DHT22;11252;50.596;17.648;2023-08-07T09:20:48;15.70;92.20
22173;DHT22;11252;50.596;17.648;2023-08-07T09:23:16;15.90;92.20
22173;DHT22;11252;50.596;17.648;2023-08-07T09:25:44;16.10;92.20
22173;DHT22;11252;50.596;17.648;2023-08-07T09:28:11;16.30;92.20
22173;DHT22;11252;50.596;17.648;2023-08-07T09:30:38;16.50;92.20
22173;DHT22;11252;50.596;17.648;2023-08-07T09:33:05;16.70;92.20
22173;DHT22;11252;50.596;17.648;2023-08-07T09:35:33;16.80;92.20
22173;DHT22;11252;50.596;17.648;2023-08-07T09:38:01;17.10;92.20
22173;DHT22;11252;50.596;17.648;2023-08-07T09:40:29;17.30;92.20
22173;DHT22;11252;50.596;17.648;2023-08-07T09:42:57;17.40;92.20
22173;DHT22;11252;50.596;17.648;2023-08-07T09:45:26;17.60;92.20
22173;DHT22;11252;50.596;17.648;2023-08-07T09:48:00;17.70;92.20
22173;DHT22;11252;50.596;17.648;2023-08-07T09:50:28;17.80;92.20
22173;DHT22;11252;50.596;17.648;2023-08-07T09:52:56;17.80;92.20
22173;DHT22;11252;50.596;17.648;2023-08-07T09:55:25;17.70;92.20
22173;DHT22;11252;50.596;17.648;2023-08-07T09:57:53;17.80;92.20
22173;DHT22;11252;50.596;17.648;2023-08-07T10:00:21;17.80;92.20
22173;DHT22;11252;50.596;17.648;2023-08-07T10:02:49;17.90;92.20
22173;DHT22;11252;50.596;17.648;2023-08-07T10:05:17;18.20;92.20
22173;DHT22;11252;50.596;17.648;2023-08-07T10:07:44;18.50;92.20
22173;DHT22;11252;50.596;17.648;2023-08-07T10:10:14;18.80;92.20
22173;DHT22;11252;50.596;17.648;2023-08-07T10:12:41;18.90;92.20
22173;DHT22;11252;50.596;17.648;2023-08-07T10:15:08;18.60;92.20
22173;DHT22;11252;50.596;17.648;2023-08-07T10:17:36;18.40;92.20
22173;DHT22;11252;50.596;17.648;2023-08-07T10:20:04;18.30;92.20
22173;DHT22;11252;50.596;17.648;2023-08-07T10:22:32;18.00;92.20
22173;DHT22;11252;50.596;17.648;2023-08-07T10:25:01;17.80;92.20
22173;DHT22;11252;50.596;17.648;2023-08-07T10:27:32;17.40;92.20
22173;DHT22;11252;50.596;17.648;2023-08-07T10:30:02;17.40;92.20
22173;DHT22;11252;50.596;17.648;2023-08-07T10:32:31;17.40;92.20
22173;DHT22;11252;50.596;17.648;2023-08-07T10:34:59;17.50;92.20
22173;DHT22;11252;50.596;17.648;2023-08-07T10:37:44;17.60;92.20
22173;DHT22;11252;50.596;17.648;2023-08-07T10:40:12;17.70;92.20
22173;DHT22;11252;50.596;17.648;2023-08-07T10:42:59;17.70;92.20
22173;DHT22;11252;50.596;17.648;2023-08-07T10:45:28;17.60;92.20
22173;DHT22;11252;50.596;17.648;2023-08-07T10:50:32;17.60;92.20
22173;DHT22;11252;50.596;17.648;2023-08-07T10:53:01;17.70;92.20
22173;DHT22;11252;50.596;17.648;2023-08-07T10:55:43;17.70;92.20
22173;DHT22;11252;50.596;17.648;2023-08-07T10:58:32;17.80;92.20
22173;DHT22;11252;50.596;17.648;2023-08-07T11:03:53;18.10;92.20
22173;DHT22;11252;50.596;17.648;2023-08-07T11:06:29;18.30;92.20
22173;DHT22;11252;50.596;17.648;2023-08-07T11:08:58;18.40;92.20
22173;DHT22;11252;50.596;17.648;2023-08-07T11:11:34;18.60;92.20
22173;DHT22;11252;50.596;17.648;2023-08-07T11:14:11;19.00;92.20
22173;DHT22;11252;50.596;17.648;2023-08-07T11:16:38;19.50;92.20
22173;DHT22;11252;50.596;17.648;2023-08-07T11:19:05;19.80;92.20
22173;DHT22;11252;50.596;17.648;2023-08-07T11:21:33;20.30;92.20
22173;DHT22;11252;50.596;17.648;2023-08-07T11:24:01;20.50;92.20
22173;DHT22;11252;50.596;17.648;2023-08-07T11:26:28;20.40;92.20
22173;DHT22;11252;50.596;17.648;2023-08-07T11:28:55;20.70;92.20
22173;DHT22;11252;50.596;17.648;2023-08-07T11:31:24;20.90;91.50
22173;DHT22;11252;50.596;17.648;2023-08-07T11:33:58;21.10;90.50
22173;DHT22;11252;50.596;17.648;2023-08-07T11:36:26;21.20;88.00
22173;DHT22;11252;50.596;17.648;2023-08-07T11:38:53;21.40;89.50
22173;DHT22;11252;50.596;17.648;2023-08-07T11:41:21;21.50;88.00
22173;DHT22;11252;50.596;17.648;2023-08-07T11:43:48;21.40;87.80
22173;DHT22;11252;50.596;17.648;2023-08-07T11:46:15;21.00;89.40
22173;DHT22;11252;50.596;17.648;2023-08-07T11:48:43;20.50;91.00
22173;DHT22;11252;50.596;17.648;2023-08-07T11:51:11;20.10;91.90
22173;DHT22;11252;50.596;17.648;2023-08-07T11:53:40;19.70;92.20
22173;DHT22;11252;50.596;17.648;2023-08-07T11:56:09;19.40;92.20
22173;DHT22;11252;50.596;17.648;2023-08-07T11:58:39;19.20;92.20
22173;DHT22;11252;50.596;17.648;2023-08-07T12:01:10;19.10;92.20
22173;DHT22;11252;50.596;17.648;2023-08-07T12:03:40;19.10;92.20
22173;DHT22;11252;50.596;17.648;2023-08-07T12:06:09;19.30;92.20
22173;DHT22;11252;50.596;17.648;2023-08-07T12:08:38;19.40;92.20
22173;DHT22;11252;50.596;17.648;2023-08-07T12:11:10;19.40;92.20
22173;DHT22;11252;50.596;17.648;2023-08-07T12:13:44;19.30;92.20
22173;DHT22;11252;50.596;17.648;2023-08-07T12:16:13;19.20;92.20
22173;DHT22;11252;50.596;17.648;2023-08-07T12:18:47;19.20;92.20
22173;DHT22;11252;50.596;17.648;2023-08-07T12:21:20;19.20;92.20
22173;DHT22;11252;50.596;17.648;2023-08-07T12:23:50;19.30;92.20
22173;DHT22;11252;50.596;17.648;2023-08-07T12:26:18;19.50;92.20
22173;DHT22;11252;50.596;17.648;2023-08-07T12:28:45;19.50;92.20
22173;DHT22;11252;50.596;17.648;2023-08-07T12:31:12;19.50;91.40
22173;DHT22;11252;50.596;17.648;2023-08-07T12:33:39;19.60;92.20
22173;DHT22;11252;50.596;17.648;2023-08-07T12:36:06;19.80;92.00
22173;DHT22;11252;50.596;17.648;2023-08-07T12:38:37;19.90;90.50
22173;DHT22;11252;50.596;17.648;2023-08-07T12:41:04;19.90;89.60
22173;DHT22;11252;50.596;17.648;2023-08-07T12:43:32;19.70;89.80
22173;DHT22;11252;50.596;17.648;2023-08-07T12:45:59;19.60;90.70
22173;DHT22;11252;50.596;17.648;2023-08-07T12:48:29;19.80;90.60
22173;DHT22;11252;50.596;17.648;2023-08-07T12:50:57;20.00;91.00
22173;DHT22;11252;50.596;17.648;2023-08-07T12:53:24;20.20;90.70
22173;DHT22;11252;50.596;17.648;2023-08-07T12:55:51;20.50;90.50
22173;DHT22;11252;50.596;17.648;2023-08-07T12:58:17;20.60;87.80
22173;DHT22;11252;50.596;17.648;2023-08-07T13:00:47;20.50;87.90
22173;DHT22;11252;50.596;17.648;2023-08-07T13:03:14;20.20;87.20
22173;DHT22;11252;50.596;17.648;2023-08-07T13:05:41;19.90;88.00
22173;DHT22;11252;50.596;17.648;2023-08-07T13:08:07;19.70;88.60
22173;DHT22;11252;50.596;17.648;2023-08-07T13:10:36;19.50;89.20
22173;DHT22;11252;50.596;17.648;2023-08-07T13:13:04;19.40;90.60
22173;DHT22;11252;50.596;17.648;2023-08-07T13:15:32;19.20;91.40
22173;DHT22;11252;50.596;17.648;2023-08-07T13:17:59;19.00;92.20
22173;DHT22;11252;50.596;17.648;2023-08-07T13:20:27;18.60;92.20
22173;DHT22;11252;50.596;17.648;2023-08-07T13:22:54;18.20;92.20
22173;DHT22;11252;50.596;17.648;2023-08-07T13:25:21;18.10;92.20
22173;DHT22;11252;50.596;17.648;2023-08-07T13:27:48;18.10;92.20
22173;DHT22;11252;50.596;17.648;2023-08-07T13:30:15;18.20;92.20
22173;DHT22;11252;50.596;17.648;2023-08-07T13:32:42;18.20;92.20
22173;DHT22;11252;50.596;17.648;2023-08-07T13:35:09;18.50;92.20
22173;DHT22;11252;50.596;17.648;2023-08-07T13:37:36;18.70;92.20
22173;DHT22;11252;50.596;17.648;2023-08-07T13:40:06;18.80;92.20
22173;DHT22;11252;50.596;17.648;2023-08-07T13:42:33;19.00;92.20
22173;DHT22;11252;50.596;17.648;2023-08-07T13:45:00;19.10;92.20
22173;DHT22;11252;50.596;17.648;2023-08-07T13:47:27;19.10;92.20
22173;DHT22;11252;50.596;17.648;2023-08-07T13:49:54;19.10;92.20
22173;DHT22;11252;50.596;17.648;2023-08-07T13:52:21;19.10;92.20
22173;DHT22;11252;50.596;17.648;2023-08-07T13:54:48;19.10;92.20
22173;DHT22;11252;50.596;17.648;2023-08-07T13:57:15;19.10;92.20
22173;DHT22;11252;50.596;17.648;2023-08-07T13:59:42;19.20;92.20
22173;DHT22;11252;50.596;17.648;2023-08-07T14:02:09;19.20;92.20
22173;DHT22;11252;50.596;17.648;2023-08-07T14:04:37;19.20;92.20
22173;DHT22;11252;50.596;17.648;2023-08-07T14:07:04;19.30;92.20
22173;DHT22;11252;50.596;17.648;2023-08-07T14:09:31;19.30;92.20
22173;DHT22;11252;50.596;17.648;2023-08-07T14:11:58;19.30;92.20
22173;DHT22;11252;50.596;17.648;2023-08-07T14:14:25;19.30;92.20
22173;DHT22;11252;50.596;17.648;2023-08-07T14:16:53;19.20;92.20
22173;DHT22;11252;50.596;17.648;2023-08-07T14:19:23;19.00;92.20
22173;DHT22;11252;50.596;17.648;2023-08-07T14:21:51;19.10;92.20
22173;DHT22;11252;50.596;17.648;2023-08-07T14:24:18;19.30;92.20
22173;DHT22;11252;50.596;17.648;2023-08-07T14:26:44;19.50;92.20
22173;DHT22;11252;50.596;17.648;2023-08-07T14:29:13;19.60;92.20
22173;DHT22;11252;50.596;17.648;2023-08-07T14:31:39;19.60;92.20
22173;DHT22;11252;50.596;17.648;2023-08-07T14:34:06;19.50;92.20
22173;DHT22;11252;50.596;17.648;2023-08-07T14:36:35;19.70;92.20
22173;DHT22;11252;50.596;17.648;2023-08-07T14:39:02;19.80;92.20
22173;DHT22;11252;50.596;17.648;2023-08-07T14:41:29;19.90;92.20
22173;DHT22;11252;50.596;17.648;2023-08-07T14:43:56;20.00;92.20
22173;DHT22;11252;50.596;17.648;2023-08-07T14:46:23;20.00;92.20
22173;DHT22;11252;50.596;17.648;2023-08-07T14:48:51;19.90;92.20
22173;DHT22;11252;50.596;17.648;2023-08-07T14:51:18;19.70;92.20
22173;DHT22;11252;50.596;17.648;2023-08-07T14:53:45;19.60;92.20
22173;DHT22;11252;50.596;17.648;2023-08-07T14:56:12;19.40;92.20
22173;DHT22;11252;50.596;17.648;2023-08-07T14:58:39;19.30;92.20
22173;DHT22;11252;50.596;17.648;2023-08-07T15:01:06;19.30;92.20
22173;DHT22;11252;50.596;17.648;2023-08-07T15:03:32;19.20;92.20
22173;DHT22;11252;50.596;17.648;2023-08-07T15:06:00;19.10;92.20
22173;DHT22;11252;50.596;17.648;2023-08-07T15:08:27;19.30;92.20
22173;DHT22;11252;50.596;17.648;2023-08-07T15:10:54;19.50;92.20
22173;DHT22;11252;50.596;17.648;2023-08-07T15:13:21;19.60;92.20
22173;DHT22;11252;50.596;17.648;2023-08-07T15:15:48;19.70;92.20
22173;DHT22;11252;50.596;17.648;2023-08-07T15:18:15;19.70;92.20
22173;DHT22;11252;50.596;17.648;2023-08-07T15:20:42;19.70;92.20
22173;DHT22;11252;50.596;17.648;2023-08-07T15:23:09;19.80;92.20
22173;DHT22;11252;50.596;17.648;2023-08-07T15:25:37;19.90;92.20
22173;DHT22;11252;50.596;17.648;2023-08-07T15:28:05;20.00;92.20
22173;DHT22;11252;50.596;17.648;2023-08-07T15:30:33;20.10;92.20
22173;DHT22;11252;50.596;17.648;2023-08-07T15:33:00;19.90;92.20
22173;DHT22;11252;50.596;17.648;2023-08-07T15:35:29;19.70;92.20